Bogart, Georgia
Current Conditions -  °F | °C
As of 3:55 AM on Sunday 23 Nov 2014 (Local Time) from KWDR Reporting Station
Light Snow Light Snow  
Wind Chill: 42°   Ceiling: 1400
Heat Index: 45°   Visibility: 7mi
Dew Point: 43°   Wind: 6mph
Humidity: 93%   Direction: 40°NE
Pressure: 30.19"   Gusts: NA
Location:  33.95°N, 83.53°W
Report Text: KWDR 230855Z AUTO 04005KT 7SM -SN OVC014 07/06 A3019 RMK AO2 T00720061
Loading
Personal Weather Stations






























Interactive Weather Map New forecast layout! Learn more

10-Day Weather Forecast

Advertisements
Track Severe Weather on mobile